Airfield :
LOGIN :

Register | Disclaimer

   EN    FR    IT 

 










Legend :    VFR   Marginal VFR   IFR   Intensive IFR   Very Intensive IFR
Visi :
Ceiling :
>= 8 km
>= 3000ft
5 to 8 km
1000 to 3000 ft
1500m to 5 km
500 to 1000 ft
800 to 1500m
200 to 500 ft
< 800m
< 200 ft
Symbols :   Thunderstorms  Fog  Heavy snow  Heavy precipitations  Wind > 20 kt
SIGMETs :     Misc.  Thunderstorms  Icing  Turbulence  Mountain Waves  Volcanic Ashes







- Airport Elevation : 587 ft
- IATA code : XCR
- Download approach charts


LFOK - Chalons Vatry

CURRENT METAR :
  • 250700Z AUTO 28008KT CAVOK 03/01 Q1026 NOSIG

EXPIRED METARs :
  • 250630Z AUTO 28009KT 9999 FEW049 02/M00 Q1026 NOSIG
  • 250600Z AUTO 27008KT CAVOK 02/M01 Q1026 NOSIG
  • 250530Z AUTO 26008KT CAVOK 01/M01 Q1025 TEMPO 2000 BR
  • 250500Z AUTO 28007KT CAVOK 02/M01 Q1026 TEMPO 2000 BR
  • 250430Z AUTO 28006KT 9999 FEW041 BKN052 02/M00 Q1025 TEMPO 2000 BR

TAF TAF LFOK
Valid from the 25 at 06:00 until the 26 at 06:00 UTC


250500Z 2506/2606 27005KT 9999 BKN045
BECMG 2509/2511 35015KT
BECMG 2517/2519 35005KT
BECMG 2603/2606 3000 BR OVC003
No reported NOTAMs for that airfield.



MET'MAP, your aeronautical weather chart ! - Copyright ORBIFLY December 2007 - Disclaimer

ORBIFLY MET'MAP TEAM :

Programming & Development : Alexandra Zaïnal
Concept & Development : Baudouin d'Aumeries
Co-Development & Prog : Marc-Olivier Méhu
Technical & hardware support : Manuel Goepfert

Contact : metmap@orbifly.com




SOURCES & CREDITS :

   NOAA